Time;durP1;ratioP1;P1;durP2;ratioP2;P2;SDS_P1;SDS_P2;PMS_P1;PMS_P2;Temp;Humidity;BMP_temperature;BMP_pressure;BME280_temperature;BME280_humidity;BME280_pressure;Samples;Min_cycle;Max_cycle;Signal;HPM_P1;HPM_P2
2022/05/09 00:01:13;;;;;;;0.28;0.28;;;12.90;93.80;;;;;;4416861;32;20617;-70
2022/05/09 00:03:40;;;;;;;0.55;0.55;;;12.80;94.00;;;;;;4435633;32;20065;-70
2022/05/09 00:06:05;;;;;;;0.30;0.30;;;12.80;94.30;;;;;;4418926;32;20077;-71
2022/05/09 00:08:31;;;;;;;1.02;0.62;;;12.70;94.30;;;;;;4438829;32;20065;-70
2022/05/09 00:10:56;;;;;;;0.60;0.60;;;12.60;94.60;;;;;;4438257;32;20112;-70
2022/05/09 00:13:22;;;;;;;0.73;0.52;;;12.50;95.00;;;;;;4432149;32;20110;-70
2022/05/09 00:15:47;;;;;;;0.30;0.30;;;12.50;94.90;;;;;;4434929;32;20110;-71
2022/05/09 00:18:13;;;;;;;0.35;0.35;;;12.40;95.00;;;;;;4432529;32;20077;-71
2022/05/09 00:20:39;;;;;;;0.35;0.35;;;12.30;95.50;;;;;;4427996;32;20065;-70
2022/05/09 00:23:05;;;;;;;3.20;0.60;;;12.20;95.70;;;;;;4423837;32;20062;-70
2022/05/09 00:25:31;;;;;;;0.25;0.25;;;12.30;95.30;;;;;;4431901;32;20128;-70
2022/05/09 00:27:56;;;;;;;2.03;0.60;;;12.40;95.30;;;;;;4427005;32;20081;-70
2022/05/09 00:30:22;;;;;;;0.20;0.20;;;12.50;95.20;;;;;;4424738;32;20564;-71
2022/05/09 00:32:47;;;;;;;2.30;0.60;;;12.40;95.40;;;;;;4432993;32;20482;-70
2022/05/09 00:35:14;;;;;;;2.55;1.52;;;12.40;95.30;;;;;;4441596;32;20685;-70
2022/05/09 00:37:41;;;;;;;6.18;1.42;;;12.40;95.30;;;;;;4443921;32;20120;-71
2022/05/09 00:40:08;;;;;;;0.57;0.57;;;12.40;95.50;;;;;;4442043;32;20129;-70
2022/05/09 00:42:34;;;;;;;0.40;0.40;;;12.30;95.70;;;;;;4441758;32;20570;-71
2022/05/09 00:45:01;;;;;;;0.30;0.30;;;12.40;95.80;;;;;;4445962;32;20142;-71
2022/05/09 00:47:26;;;;;;;3.83;0.40;;;12.40;95.80;;;;;;4444921;32;20101;-71
2022/05/09 00:49:57;;;;;;;0.62;0.60;;;12.30;95.90;;;;;;4444478;32;20434;-71
2022/05/09 00:52:46;;;;;;;0.68;0.68;;;12.20;96.10;;;;;;4445513;32;20065;-70
2022/05/09 00:55:25;;;;;;;1.75;1.27;;;12.10;96.60;;;;;;4433797;32;20073;-70
2022/05/09 00:57:58;;;;;;;0.52;0.50;;;12.10;96.70;;;;;;4422626;32;20579;-70
2022/05/09 01:00:25;;;;;;;2.10;1.02;;;12.10;96.70;;;;;;4425181;32;20607;-70
2022/05/09 01:02:59;;;;;;;0.40;0.40;;;12.00;96.90;;;;;;4441818;32;20080;-70
2022/05/09 01:05:27;;;;;;;13.05;0.50;;;12.00;96.90;;;;;;4442849;32;20500;-71
2022/05/09 01:07:54;;;;;;;1.90;1.00;;;12.10;96.90;;;;;;4441868;32;20128;-70
2022/05/09 01:10:28;;;;;;;0.25;0.25;;;12.10;97.00;;;;;;4442047;32;20077;-70
2022/05/09 01:12:54;;;;;;;1.98;0.73;;;12.10;96.70;;;;;;4442497;32;20089;-71
2022/05/09 01:15:19;;;;;;;0.30;0.30;;;12.20;96.80;;;;;;4443263;32;20116;-71
2022/05/09 01:17:49;;;;;;;0.20;0.20;;;12.00;96.90;;;;;;4444678;32;20088;-71
2022/05/09 01:20:15;;;;;;;13.40;0.68;;;12.10;97.10;;;;;;4443173;32;20092;-70
2022/05/09 01:22:42;;;;;;;0.98;0.85;;;12.00;97.00;;;;;;4442492;32;20089;-70
2022/05/09 01:25:11;;;;;;;0.30;0.30;;;12.00;97.20;;;;;;4440486;32;20151;-70
2022/05/09 01:27:40;;;;;;;0.28;0.28;;;12.00;97.10;;;;;;4432703;32;20147;-71
2022/05/09 01:30:11;;;;;;;0.50;0.50;;;11.90;97.20;;;;;;4420340;32;20121;-70
2022/05/09 01:32:38;;;;;;;;;;;11.90;97.50;;;;;;4436401;32;20065;-70
2022/05/09 01:35:10;;;;;;;1.23;0.60;;;11.90;97.50;;;;;;4441063;32;19965;-70
2022/05/09 01:37:38;;;;;;;0.30;0.30;;;11.80;97.70;;;;;;4429683;32;20515;-71
2022/05/09 01:40:04;;;;;;;0.52;0.52;;;11.80;97.70;;;;;;4424486;32;20088;-70
2022/05/09 01:42:29;;;;;;;0.62;0.43;;;11.80;97.80;;;;;;4425810;32;20065;-71
2022/05/09 01:44:55;;;;;;;1.05;0.95;;;11.80;97.80;;;;;;4426510;32;20105;-70
2022/05/09 01:49:35;;;;;;;0.30;0.30;;;11.70;97.90;;;;;;4428243;32;20568;-70
2022/05/09 01:50:06;;;;;;;0.45;0.45;;;11.70;98.10;;;;;;4410107;32;20548;-70
2022/05/09 01:52:32;;;;;;;0.73;0.50;;;11.80;98.10;;;;;;4423806;32;20061;-71
2022/05/09 01:54:57;;;;;;;0.70;0.70;;;11.80;97.90;;;;;;4417238;32;20605;-70
2022/05/09 01:57:23;;;;;;;1.23;0.90;;;11.80;98.00;;;;;;4419234;32;20105;-71
2022/05/09 01:59:48;;;;;;;6.28;0.55;;;11.70;98.20;;;;;;4406590;32;20523;-70
2022/05/09 02:02:18;;;;;;;0.55;0.50;;;11.70;98.30;;;;;;4418520;32;20077;-70
2022/05/09 02:04:43;;;;;;;1.10;0.50;;;11.70;98.40;;;;;;4422322;32;20076;-72
2022/05/09 02:07:12;;;;;;;1.45;0.93;;;11.60;98.50;;;;;;4421825;32;20086;-70
2022/05/09 02:09:40;;;;;;;0.50;0.50;;;11.70;98.50;;;;;;4425343;32;20077;-70
2022/05/09 02:12:07;;;;;;;0.30;0.30;;;11.70;98.50;;;;;;4423938;32;20508;-70
2022/05/09 02:14:32;;;;;;;0.30;0.30;;;11.60;98.80;;;;;;4426805;32;20136;-71
2022/05/09 02:16:58;;;;;;;0.40;0.40;;;11.50;99.00;;;;;;4427012;32;20135;-71
2022/05/09 02:19:23;;;;;;;0.50;0.50;;;11.40;99.30;;;;;;4423915;32;20081;-70
2022/05/09 02:21:49;;;;;;;2.03;1.60;;;11.40;99.40;;;;;;4425861;32;20410;-72
2022/05/09 02:24:14;;;;;;;0.60;0.60;;;11.40;99.40;;;;;;4423306;32;20069;-70
2022/05/09 02:26:39;;;;;;;9.35;1.65;;;11.30;99.70;;;;;;4427479;32;20519;-70
2022/05/09 02:29:05;;;;;;;0.52;0.52;;;11.20;99.90;;;;;;4399523;32;20406;-70
2022/05/09 02:31:32;;;;;;;0.35;0.35;;;11.20;99.90;;;;;;4406810;32;20073;-70
2022/05/09 02:33:58;;;;;;;0.75;0.60;;;11.30;99.90;;;;;;4423643;32;20535;-71
2022/05/09 02:36:23;;;;;;;0.25;0.25;;;11.20;99.90;;;;;;4423523;32;20098;-71
2022/05/09 02:38:49;;;;;;;0.30;0.30;;;11.10;99.90;;;;;;4418956;32;20081;-71
2022/05/09 02:41:14;;;;;;;0.47;0.45;;;11.10;99.90;;;;;;4423338;32;20097;-71
2022/05/09 02:43:40;;;;;;;4.68;2.12;;;11.10;99.90;;;;;;4422277;32;20181;-71
2022/05/09 02:46:05;;;;;;;0.43;0.43;;;11.10;99.90;;;;;;4423854;32;20061;-71
2022/05/09 02:48:33;;;;;;;0.30;0.30;;;11.00;99.90;;;;;;4421768;32;20077;-71
2022/05/09 02:50:58;;;;;;;0.30;0.30;;;11.00;99.90;;;;;;4429982;32;20510;-71
2022/05/09 02:53:24;;;;;;;0.40;0.40;;;11.00;99.90;;;;;;4427346;32;20081;-71
2022/05/09 02:55:50;;;;;;;7.87;0.90;;;10.90;99.90;;;;;;4425508;32;20081;-71
2022/05/09 02:58:15;;;;;;;0.73;0.73;;;10.90;99.90;;;;;;4412167;32;20632;-71
2022/05/09 03:00:41;;;;;;;3.08;0.52;;;10.90;99.90;;;;;;4406392;32;20069;-70
2022/05/09 03:05:07;;;;;;;0.40;0.40;;;11.00;99.90;;;;;;4420627;32;20727;-70
2022/05/09 03:05:52;;;;;;;0.55;0.55;;;11.00;99.90;;;;;;4413146;32;20497;-71
2022/05/09 03:08:18;;;;;;;0.40;0.40;;;10.90;99.90;;;;;;4420720;32;20139;-71
2022/05/09 03:10:44;;;;;;;3.65;0.77;;;10.90;99.90;;;;;;4426180;32;20097;-70
2022/05/09 03:13:12;;;;;;;0.52;0.50;;;10.80;99.90;;;;;;4425550;32;20518;-70
2022/05/09 03:15:41;;;;;;;3.95;0.75;;;10.80;99.90;;;;;;4428342;32;20115;-70
2022/05/09 03:18:07;;;;;;;2.03;1.10;;;10.80;99.90;;;;;;4426940;32;20073;-70
2022/05/09 03:20:32;;;;;;;0.60;0.60;;;10.80;99.90;;;;;;4414157;32;20438;-71
2022/05/09 03:22:58;;;;;;;0.80;0.80;;;10.80;99.90;;;;;;4425683;32;20089;-71
2022/05/09 03:25:24;;;;;;;2.28;0.88;;;10.80;99.90;;;;;;4420786;32;20268;-71
2022/05/09 03:27:49;;;;;;;0.80;0.73;;;10.80;99.90;;;;;;4414235;32;20073;-71
2022/05/09 03:30:19;;;;;;;0.30;0.30;;;10.90;99.90;;;;;;4408089;32;20294;-70
2022/05/09 03:32:45;;;;;;;8.13;0.47;;;10.90;99.90;;;;;;4422337;32;20078;-70
2022/05/09 03:35:11;;;;;;;0.30;0.30;;;10.90;99.90;;;;;;4418396;32;20090;-71
2022/05/09 03:37:37;;;;;;;2.05;0.88;;;10.80;99.90;;;;;;4426446;32;20073;-71
2022/05/09 03:40:04;;;;;;;1.30;0.50;;;10.70;99.90;;;;;;4426495;32;20453;-71
2022/05/09 03:42:30;;;;;;;0.40;0.40;;;10.70;99.90;;;;;;4419086;32;20139;-71
2022/05/09 03:44:55;;;;;;;0.45;0.45;;;10.60;99.90;;;;;;4430941;32;20077;-71
2022/05/09 03:47:21;;;;;;;2.40;1.15;;;10.60;99.90;;;;;;4430553;32;20116;-71
2022/05/09 03:49:46;;;;;;;3.95;0.70;;;10.60;99.90;;;;;;4428178;32;21145;-71
2022/05/09 03:52:12;;;;;;;0.85;0.80;;;10.70;99.90;;;;;;4426549;32;20065;-71
2022/05/09 03:54:38;;;;;;;0.75;0.52;;;10.80;99.90;;;;;;4424396;32;20065;-71
2022/05/09 03:57:04;;;;;;;1.42;0.50;;;10.70;99.90;;;;;;4424835;32;20073;-71
2022/05/09 03:59:29;;;;;;;0.50;0.50;;;10.80;99.90;;;;;;4409785;32;20081;-70
2022/05/09 04:01:56;;;;;;;6.43;1.90;;;10.80;99.90;;;;;;4418598;32;20076;-71
2022/05/09 04:04:22;;;;;;;0.30;0.30;;;10.80;99.90;;;;;;4428338;32;20074;-71
2022/05/09 04:06:51;;;;;;;1.65;0.52;;;10.70;99.90;;;;;;4414530;32;20066;-71
2022/05/09 04:09:17;;;;;;;3.28;0.90;;;10.60;99.90;;;;;;4429863;32;20465;-71
2022/05/09 04:11:42;;;;;;;0.37;0.37;;;10.60;99.90;;;;;;4427358;32;20069;-71
2022/05/09 04:14:07;;;;;;;1.30;0.75;;;10.60;99.90;;;;;;4417549;32;20147;-71
2022/05/09 04:17:04;;;;;;;0.90;0.85;;;10.60;99.90;;;;;;4427901;32;20077;-70
2022/05/09 04:19:20;;;;;;;3.40;1.27;;;10.70;99.90;;;;;;4415890;32;20074;-71
2022/05/09 04:21:46;;;;;;;0.75;0.75;;;10.70;99.90;;;;;;4413606;32;20078;-70
2022/05/09 04:24:12;;;;;;;10.88;0.50;;;10.80;99.90;;;;;;4383778;32;20341;-71
2022/05/09 04:26:38;;;;;;;1.37;1.12;;;10.60;99.90;;;;;;4391754;32;21147;-70
2022/05/09 04:29:03;;;;;;;11.45;0.95;;;10.70;99.90;;;;;;4377356;32;20330;-70
2022/05/09 04:31:30;;;;;;;2.72;0.95;;;10.70;99.90;;;;;;4377016;32;20066;-70
2022/05/09 04:33:58;;;;;;;0.73;0.73;;;10.70;99.90;;;;;;4388306;32;20086;-70
2022/05/09 04:36:26;;;;;;;0.62;0.45;;;10.70;99.90;;;;;;4423527;32;20065;-70
2022/05/09 04:38:52;;;;;;;7.32;0.73;;;10.70;99.90;;;;;;4425267;32;20073;-70
2022/05/09 04:41:19;;;;;;;2.00;1.00;;;10.80;99.90;;;;;;4428275;32;20089;-70
2022/05/09 04:43:46;;;;;;;0.40;0.40;;;10.90;99.90;;;;;;4427314;32;20108;-70
2022/05/09 04:46:12;;;;;;;0.20;0.20;;;11.00;99.90;;;;;;4424177;32;20085;-70
2022/05/09 04:48:40;;;;;;;3.83;0.80;;;11.00;99.90;;;;;;4426322;32;20086;-70
2022/05/09 04:51:06;;;;;;;5.57;1.20;;;10.90;99.90;;;;;;4426961;32;20074;-71
2022/05/09 04:53:31;;;;;;;0.52;0.52;;;10.90;99.90;;;;;;4381789;32;20074;-70
2022/05/09 04:55:57;;;;;;;1.75;1.15;;;10.90;99.90;;;;;;4389520;32;20082;-70
2022/05/09 04:58:23;;;;;;;0.47;0.47;;;10.90;99.90;;;;;;4412439;32;20191;-70
2022/05/09 05:00:49;;;;;;;0.40;0.40;;;11.00;99.90;;;;;;4406130;32;20061;-70
2022/05/09 05:03:15;;;;;;;0.40;0.40;;;11.00;99.90;;;;;;4401455;32;20501;-70
2022/05/09 05:05:42;;;;;;;0.40;0.40;;;11.00;99.90;;;;;;4385299;32;20400;-70
2022/05/09 05:08:08;;;;;;;3.00;0.40;;;11.00;99.90;;;;;;4385718;32;20166;-70
2022/05/09 05:10:34;;;;;;;1.12;0.85;;;10.90;99.90;;;;;;4370351;32;21022;-71
2022/05/09 05:13:03;;;;;;;0.50;0.50;;;10.90;99.90;;;;;;4365836;32;20122;-69
2022/05/09 05:15:29;;;;;;;0.55;0.55;;;11.00;99.90;;;;;;4378300;32;20561;-70
2022/05/09 05:17:55;;;;;;;0.40;0.40;;;11.00;99.90;;;;;;4370192;32;20978;-69
2022/05/09 05:20:22;;;;;;;0.30;0.30;;;11.10;99.90;;;;;;4334392;32;20158;-69
2022/05/09 05:22:48;;;;;;;0.32;0.32;;;11.30;99.90;;;;;;4340965;32;20604;-69
2022/05/09 05:25:18;;;;;;;0.37;0.37;;;11.30;99.90;;;;;;4319072;32;20076;-70
2022/05/09 05:27:44;;;;;;;0.40;0.40;;;11.30;99.90;;;;;;4340160;32;20085;-70
2022/05/09 05:30:10;;;;;;;0.22;0.22;;;11.30;99.90;;;;;;4318902;32;20145;-71
2022/05/09 05:32:39;;;;;;;10.57;0.52;;;11.20;99.90;;;;;;4338835;32;20956;-70
2022/05/09 05:35:11;;;;;;;7.68;1.08;;;11.10;99.90;;;;;;4350601;32;20135;-70
2022/05/09 05:37:39;;;;;;;0.65;0.62;;;11.10;99.90;;;;;;4348688;32;20095;-70
2022/05/09 05:40:05;;;;;;;1.08;0.62;;;11.10;99.90;;;;;;4351315;32;20274;-71
2022/05/09 05:42:31;;;;;;;0.40;0.40;;;11.20;99.90;;;;;;4357938;32;20900;-71
2022/05/09 05:44:57;;;;;;;12.40;0.62;;;11.30;99.90;;;;;;4372302;32;20671;-71
2022/05/09 05:47:23;;;;;;;1.52;0.80;;;11.40;99.90;;;;;;4389825;32;20105;-71
2022/05/09 05:49:50;;;;;;;0.70;0.68;;;11.50;99.90;;;;;;4389412;32;20166;-71
2022/05/09 05:52:16;;;;;;;1.15;0.85;;;11.50;99.90;;;;;;4375424;32;20338;-70
2022/05/09 05:54:44;;;;;;;1.33;0.82;;;11.50;99.90;;;;;;4396536;32;20199;-72
2022/05/09 05:57:27;;;;;;;0.57;0.52;;;11.60;99.90;;;;;;4391815;32;20093;-71
2022/05/09 05:59:55;;;;;;;0.40;0.40;;;11.80;99.90;;;;;;4401358;32;20081;-71
2022/05/09 06:02:21;;;;;;;6.00;1.83;;;11.90;99.90;;;;;;4370202;32;20209;-71
2022/05/09 06:04:47;;;;;;;0.60;0.60;;;11.90;99.90;;;;;;4365614;32;20478;-71
2022/05/09 06:07:13;;;;;;;0.40;0.40;;;11.80;99.90;;;;;;4371271;32;20548;-71
2022/05/09 06:09:40;;;;;;;0.90;0.82;;;11.90;99.90;;;;;;4371970;32;20389;-71
2022/05/09 06:12:07;;;;;;;0.40;0.40;;;12.00;99.90;;;;;;4382621;32;20738;-71
2022/05/09 06:14:32;;;;;;;0.68;0.55;;;12.10;99.90;;;;;;4379556;32;20858;-71
2022/05/09 06:16:58;;;;;;;0.50;0.50;;;12.30;99.90;;;;;;4390123;32;21477;-71
2022/05/09 06:19:24;;;;;;;0.73;0.57;;;12.40;99.90;;;;;;4366847;32;20433;-71
2022/05/09 06:21:50;;;;;;;0.60;0.60;;;12.40;99.90;;;;;;4386488;32;20457;-71
2022/05/09 06:24:16;;;;;;;12.15;0.65;;;12.40;99.90;;;;;;4380904;32;20277;-71
2022/05/09 06:26:42;;;;;;;3.95;0.80;;;12.40;99.90;;;;;;4379389;32;20196;-72
2022/05/09 06:29:08;;;;;;;1.70;1.02;;;12.50;99.90;;;;;;4383840;32;20105;-72
2022/05/09 06:31:35;;;;;;;0.37;0.37;;;12.50;99.90;;;;;;4371552;32;20470;-72
2022/05/09 06:34:02;;;;;;;0.52;0.52;;;12.60;99.90;;;;;;4370582;32;20167;-71
2022/05/09 06:36:31;;;;;;;0.47;0.47;;;12.70;99.90;;;;;;4374796;32;20307;-71
2022/05/09 06:38:57;;;;;;;0.47;0.47;;;12.80;99.90;;;;;;4384183;32;20109;-71
2022/05/09 06:41:23;;;;;;;0.55;0.50;;;12.90;99.90;;;;;;4397443;32;20093;-71
2022/05/09 06:43:48;;;;;;;2.12;0.95;;;13.00;99.90;;;;;;4403542;32;20144;-72
2022/05/09 06:46:14;;;;;;;0.60;0.60;;;13.10;99.90;;;;;;4409520;32;20098;-72
2022/05/09 06:48:39;;;;;;;0.68;0.50;;;13.10;99.90;;;;;;4398325;32;20149;-71
2022/05/09 06:51:04;;;;;;;0.35;0.35;;;13.00;99.90;;;;;;4397750;32;20337;-71
2022/05/09 06:53:32;;;;;;;0.25;0.25;;;13.10;99.90;;;;;;4395760;32;20084;-71
2022/05/09 06:55:58;;;;;;;2.35;0.70;;;13.30;99.90;;;;;;4402056;32;20686;-71
2022/05/09 06:58:25;;;;;;;1.62;0.85;;;13.40;99.90;;;;;;4412347;32;20143;-72
2022/05/09 07:00:52;;;;;;;0.47;0.47;;;13.40;99.90;;;;;;4396819;32;20089;-70
2022/05/09 07:03:18;;;;;;;0.30;0.30;;;13.50;99.90;;;;;;4385091;32;20211;-70
2022/05/09 07:05:45;;;;;;;0.50;0.50;;;13.50;99.90;;;;;;4379307;32;20081;-72
2022/05/09 07:08:11;;;;;;;0.73;0.73;;;13.70;99.90;;;;;;4393519;32;20192;-71
2022/05/09 07:10:37;;;;;;;3.00;0.52;;;13.60;99.90;;;;;;4392231;32;20151;-72
2022/05/09 07:13:04;;;;;;;0.60;0.60;;;13.70;99.90;;;;;;4387193;32;20863;-72
2022/05/09 07:15:31;;;;;;;0.98;0.62;;;13.70;99.90;;;;;;4393554;32;20415;-72
2022/05/09 07:17:58;;;;;;;24.40;2.35;;;13.80;99.90;;;;;;4383972;32;20723;-71
2022/05/09 07:20:26;;;;;;;0.65;0.65;;;13.80;99.90;;;;;;4385845;32;20144;-72
2022/05/09 07:22:54;;;;;;;4.82;1.62;;;13.80;99.90;;;;;;4393535;32;20344;-71
2022/05/09 07:25:21;;;;;;;0.30;0.30;;;14.00;99.90;;;;;;4397686;32;20089;-70
2022/05/09 07:27:47;;;;;;;0.30;0.30;;;14.30;99.90;;;;;;4385841;32;20892;-71
2022/05/09 07:30:15;;;;;;;0.37;0.37;;;14.50;99.90;;;;;;4386162;32;20093;-71
2022/05/09 07:32:41;;;;;;;0.28;0.28;;;14.60;99.90;;;;;;4366164;32;20286;-71
2022/05/09 07:35:10;;;;;;;0.73;0.65;;;14.70;99.90;;;;;;4352516;32;20576;-72
2022/05/09 07:37:36;;;;;;;7.37;1.17;;;14.70;99.90;;;;;;4374923;32;114499;-72
2022/05/09 07:40:03;;;;;;;0.45;0.45;;;14.80;99.90;;;;;;4402764;32;20172;-72
2022/05/09 07:42:28;;;;;;;8.55;0.62;;;14.90;99.90;;;;;;4395144;32;21176;-72
2022/05/09 07:44:56;;;;;;;0.85;0.82;;;15.00;99.90;;;;;;4398161;32;20417;-71
2022/05/09 07:47:23;;;;;;;2.45;1.60;;;15.20;99.90;;;;;;4387550;32;20077;-72
2022/05/09 07:49:48;;;;;;;1.65;1.12;;;15.50;99.90;;;;;;4384545;32;20267;-72
2022/05/09 07:52:14;;;;;;;2.00;0.60;;;15.60;99.70;;;;;;4383553;32;20092;-71
2022/05/09 07:54:39;;;;;;;0.35;0.35;;;15.60;99.60;;;;;;4387863;32;20169;-71
2022/05/09 07:57:05;;;;;;;0.40;0.40;;;15.90;99.80;;;;;;4396171;32;20112;-71
2022/05/09 07:59:30;;;;;;;0.62;0.62;;;16.00;98.60;;;;;;4394604;32;20085;-71
2022/05/09 08:01:56;;;;;;;0.40;0.32;;;15.80;98.60;;;;;;4389334;32;21052;-70
2022/05/09 08:04:22;;;;;;;7.70;1.77;;;16.00;99.10;;;;;;4374849;32;20344;-71
2022/05/09 08:06:48;;;;;;;2.70;0.73;;;16.20;99.10;;;;;;4383396;32;20563;-72
2022/05/09 08:09:13;;;;;;;0.73;0.45;;;16.40;99.20;;;;;;4400888;32;20166;-72
2022/05/09 08:11:39;;;;;;;4.65;0.55;;;16.50;98.20;;;;;;4402956;32;20192;-71
2022/05/09 08:14:05;;;;;;;9.07;0.77;;;16.60;97.80;;;;;;4400959;32;20438;-71
2022/05/09 08:16:31;;;;;;;11.82;0.60;;;16.70;98.10;;;;;;4406544;32;20818;-71
2022/05/09 08:18:58;;;;;;;0.50;0.50;;;16.80;97.50;;;;;;4397123;32;20343;-71
2022/05/09 08:21:25;;;;;;;0.60;0.60;;;16.80;97.30;;;;;;4402903;32;20127;-73
2022/05/09 08:23:51;;;;;;;0.40;0.40;;;17.00;96.10;;;;;;4403960;32;20246;-71
2022/05/09 08:26:21;;;;;;;0.62;0.62;;;17.00;96.10;;;;;;4400397;32;20131;-71
2022/05/09 08:28:53;;;;;;;5.07;0.65;;;16.90;96.50;;;;;;4408282;32;20092;-72
2022/05/09 08:31:18;;;;;;;0.73;0.68;;;16.80;96.80;;;;;;4400807;32;20102;-72
2022/05/09 08:33:47;;;;;;;0.65;0.65;;;16.90;97.40;;;;;;4388808;32;20528;-72
2022/05/09 08:36:45;;;;;;;0.82;0.77;;;17.10;96.40;;;;;;4390219;32;20070;-71
2022/05/09 08:38:58;;;;;;;0.30;0.30;;;17.20;95.30;;;;;;4379902;32;20183;-71
2022/05/09 08:41:23;;;;;;;0.47;0.47;;;17.40;95.70;;;;;;4390740;32;20828;-71
2022/05/09 08:44:08;;;;;;;0.47;0.37;;;17.50;95.90;;;;;;4397363;32;20093;-71
2022/05/09 08:46:47;;;;;;;0.20;0.20;;;17.40;95.00;;;;;;4393837;32;20089;-72
2022/05/09 08:49:26;;;;;;;0.62;0.62;;;17.60;95.60;;;;;;4378467;32;21388;-71
2022/05/09 08:52:07;;;;;;;1.00;0.80;;;17.90;94.60;;;;;;4395921;32;20370;-71
2022/05/09 08:54:35;;;;;;;1.10;0.60;;;18.00;94.50;;;;;;4382552;32;20887;-72
2022/05/09 08:57:05;;;;;;;0.57;0.57;;;18.10;95.50;;;;;;4389156;32;20109;-71
2022/05/09 08:59:36;;;;;;;1.37;0.55;;;18.20;93.90;;;;;;4386938;32;20127;-71
2022/05/09 09:02:14;;;;;;;1.10;0.68;;;18.20;95.40;;;;;;4390117;32;20432;-72
2022/05/09 09:04:43;;;;;;;1.17;1.08;;;18.40;93.90;;;;;;4367340;32;20408;-71
2022/05/09 09:07:34;;;;;;;1.45;0.85;;;18.50;93.60;;;;;;4380770;32;20065;-71
2022/05/09 09:10:17;;;;;;;0.30;0.30;;;18.70;92.90;;;;;;4386307;32;20089;-71
2022/05/09 09:12:47;;;;;;;1.92;0.80;;;18.80;91.60;;;;;;4396574;32;20129;-71
2022/05/09 09:15:26;;;;;;;0.68;0.60;;;18.90;91.00;;;;;;4400058;32;20569;-71
2022/05/09 09:17:59;;;;;;;1.00;0.70;;;19.00;89.10;;;;;;4391146;32;20599;-71
2022/05/09 09:21:04;;;;;;;1.17;0.57;;;18.90;87.60;;;;;;4395943;32;20444;-71
2022/05/09 09:23:58;;;;;;;0.40;0.40;;;18.90;88.90;;;;;;4336027;32;20116;-72
2022/05/09 09:26:35;;;;;;;0.40;0.40;;;19.10;89.20;;;;;;4366039;32;20501;-72
2022/05/09 09:29:09;;;;;;;0.35;0.35;;;19.40;88.60;;;;;;4367019;32;20201;-71
2022/05/09 09:31:38;;;;;;;0.20;0.20;;;19.50;83.90;;;;;;4390707;32;20113;-71
2022/05/09 09:34:17;;;;;;;0.40;0.40;;;19.50;83.50;;;;;;4374354;32;20543;-72
2022/05/09 09:36:48;;;;;;;0.40;0.40;;;19.70;83.20;;;;;;4371094;32;20191;-72
2022/05/09 09:39:17;;;;;;;14.48;0.98;;;19.70;82.70;;;;;;4385098;32;20151;-72
2022/05/09 09:41:43;;;;;;;0.60;0.60;;;19.70;83.40;;;;;;4383953;32;20089;-72
2022/05/09 09:44:15;;;;;;;0.20;0.20;;;19.70;84.10;;;;;;4387495;32;20212;-72
2022/05/09 09:47:02;;;;;;;0.40;0.40;;;19.60;83.90;;;;;;4382846;32;20522;-72
2022/05/09 09:49:29;;;;;;;0.40;0.40;;;20.00;82.70;;;;;;4344740;32;20767;-72
2022/05/09 09:51:57;;;;;;;0.37;0.37;;;20.40;81.60;;;;;;4359138;32;20152;-71
2022/05/09 09:54:30;;;;;;;0.40;0.40;;;20.50;81.30;;;;;;4355080;32;20132;-74
2022/05/09 09:56:56;;;;;;;10.30;0.50;;;20.50;81.60;;;;;;4368814;32;20123;-71
2022/05/09 09:59:24;;;;;;;0.40;0.40;;;20.60;79.70;;;;;;4379959;32;20109;-71
2022/05/09 10:02:26;;;;;;;0.30;0.30;;;20.30;79.90;;;;;;4369451;32;20298;-72
2022/05/09 10:04:57;;;;;;;0.55;0.37;;;20.40;78.60;;;;;;4350592;32;20326;-72
2022/05/09 10:07:33;;;;;;;3.42;0.68;;;20.60;78.30;;;;;;4378169;32;20082;-72
2022/05/09 10:10:10;;;;;;;1.62;0.30;;;20.60;76.80;;;;;;4371960;32;20082;-71
2022/05/09 10:12:37;;;;;;;0.30;0.30;;;20.80;77.70;;;;;;4390621;32;20093;-71
2022/05/09 10:15:28;;;;;;;1.08;0.40;;;21.00;76.80;;;;;;4379766;32;20193;-71
2022/05/09 10:17:54;;;;;;;;;;;21.00;77.80;;;;;;4364118;32;20156;-71
2022/05/09 10:20:40;;;;;;;0.30;0.30;;;21.40;75.60;;;;;;4359859;32;20115;-71
2022/05/09 10:24:49;;;;;;;0.30;0.30;;;21.30;74.00;;;;;;4353691;32;20837;-71
2022/05/09 10:26:16;;;;;;;1.73;0.70;;;21.30;74.70;;;;;;4358449;32;20384;-71
2022/05/09 10:28:49;;;;;;;0.50;0.50;;;21.60;75.10;;;;;;4374436;32;20824;-72
2022/05/09 10:31:23;;;;;;;0.57;0.50;;;22.00;75.60;;;;;;4374911;32;20153;-72
2022/05/09 10:33:56;;;;;;;1.15;0.62;;;22.10;74.40;;;;;;4366469;32;20530;-70
2022/05/09 10:36:26;;;;;;;0.47;0.47;;;22.30;72.80;;;;;;4372917;32;20179;-70
2022/05/09 10:38:59;;;;;;;0.73;0.55;;;22.20;74.30;;;;;;4391838;32;20169;-70
2022/05/09 10:41:31;;;;;;;0.50;0.50;;;22.60;72.30;;;;;;4372545;32;20545;-71
2022/05/09 10:44:07;;;;;;;0.75;0.75;;;22.50;69.30;;;;;;4375786;32;20077;-70
2022/05/09 10:46:41;;;;;;;1.87;0.82;;;22.60;71.80;;;;;;4370605;32;20844;-71
2022/05/09 10:49:16;;;;;;;0.37;0.37;;;22.70;67.50;;;;;;4363607;32;20151;-74
2022/05/09 10:51:58;;;;;;;0.50;0.50;;;22.70;67.50;;;;;;4343989;32;20478;-72
2022/05/09 10:54:47;;;;;;;0.20;0.20;;;22.70;66.10;;;;;;4329181;32;20089;-72
2022/05/09 10:57:24;;;;;;;0.20;0.20;;;22.50;68.00;;;;;;4346832;32;20246;-71
2022/05/09 10:59:53;;;;;;;0.50;0.50;;;22.70;68.10;;;;;;4362621;32;20192;-72
2022/05/09 11:02:28;;;;;;;0.50;0.50;;;22.90;68.00;;;;;;4361884;32;20166;-70
2022/05/09 11:04:55;;;;;;;0.60;0.60;;;23.00;69.90;;;;;;4358662;32;22288;-71
2022/05/09 11:07:39;;;;;;;5.43;1.60;;;23.60;70.10;;;;;;4377452;32;20825;-71
2022/05/09 11:10:19;;;;;;;0.40;0.40;;;24.20;68.10;;;;;;4382805;32;20540;-71
2022/05/09 11:12:57;;;;;;;0.25;0.25;;;24.00;67.90;;;;;;4374110;32;20405;-71
2022/05/09 11:15:30;;;;;;;0.50;0.50;;;24.10;69.20;;;;;;4376367;32;20105;-70
2022/05/09 11:18:25;;;;;;;1.85;1.37;;;24.50;64.50;;;;;;4374669;32;21032;-70
2022/05/09 11:21:11;;;;;;;2.17;0.75;;;25.20;58.90;;;;;;4346685;32;20769;-70
2022/05/09 11:24:03;;;;;;;0.32;0.32;;;24.80;60.30;;;;;;4346692;32;20663;-70
2022/05/09 11:27:05;;;;;;;0.62;0.57;;;24.90;59.90;;;;;;4362256;32;20102;-71
2022/05/09 11:29:45;;;;;;;0.30;0.30;;;24.50;57.90;;;;;;4353532;32;20606;-71
2022/05/09 11:32:35;;;;;;;9.63;1.33;;;24.80;58.90;;;;;;4370837;32;20353;-72
2022/05/09 11:35:30;;;;;;;0.47;0.43;;;25.20;59.70;;;;;;4365046;32;20485;-70
2022/05/09 11:38:17;;;;;;;0.65;0.30;;;25.20;57.80;;;;;;4364771;32;20090;-71
2022/05/09 11:40:55;;;;;;;0.20;0.20;;;25.40;57.90;;;;;;4380561;32;20137;-71
2022/05/09 11:43:50;;;;;;;0.20;0.20;;;25.30;58.60;;;;;;4365619;32;20098;-71
2022/05/09 11:46:56;;;;;;;0.57;0.57;;;25.50;58.90;;;;;;4341631;32;20267;-74
2022/05/09 11:49:50;;;;;;;0.25;0.25;;;25.20;60.30;;;;;;4342966;32;20553;-72
2022/05/09 11:52:26;;;;;;;0.28;0.28;;;25.50;59.80;;;;;;4344576;32;20329;-72
2022/05/09 11:54:53;;;;;;;0.20;0.20;;;26.40;56.50;;;;;;4369935;32;20173;-71
2022/05/09 11:57:31;;;;;;;1.10;0.40;;;26.20;58.50;;;;;;4382090;32;20596;-71
2022/05/09 12:00:00;;;;;;;0.10;0.10;;;26.10;56.50;;;;;;4375100;32;20292;-70
2022/05/09 12:02:46;;;;;;;0.65;0.65;;;26.50;55.30;;;;;;4373313;32;21680;-72
2022/05/09 12:05:31;;;;;;;0.20;0.20;;;27.10;54.10;;;;;;4359466;32;21002;-71
2022/05/09 12:08:04;;;;;;;0.47;0.32;;;27.10;53.00;;;;;;4383272;32;20162;-72
2022/05/09 12:10:35;;;;;;;5.55;0.88;;;27.00;52.30;;;;;;4379842;32;20159;-71
2022/05/09 12:13:06;;;;;;;0.10;0.10;;;27.40;53.60;;;;;;4391917;32;20096;-71
2022/05/09 12:15:35;;;;;;;0.55;0.37;;;27.90;52.00;;;;;;4386051;32;20112;-73
2022/05/09 12:18:18;;;;;;;0.30;0.30;;;28.00;50.40;;;;;;4374105;32;20338;-73
2022/05/09 12:21:14;;;;;;;0.32;0.32;;;28.00;51.50;;;;;;4370027;32;20414;-73
2022/05/09 12:23:44;;;;;;;0.20;0.20;;;28.00;51.00;;;;;;4359657;32;20092;-72
2022/05/09 12:26:25;;;;;;;;;;;27.80;52.60;;;;;;4381420;32;20942;-73
2022/05/09 12:28:51;;;;;;;1.23;0.60;;;27.70;52.40;;;;;;4389182;32;20700;-72
2022/05/09 12:31:39;;;;;;;2.08;0.85;;;28.30;52.80;;;;;;4364179;32;20182;-75
2022/05/09 12:34:07;;;;;;;0.10;0.10;;;28.30;52.20;;;;;;4339548;32;20511;-74
2022/05/09 12:36:35;;;;;;;0.15;0.15;;;28.10;51.70;;;;;;4369293;32;20301;-74
2022/05/09 12:39:22;;;;;;;2.72;0.90;;;28.40;53.00;;;;;;4394549;32;20106;-73
2022/05/09 12:41:53;;;;;;;0.10;0.10;;;28.80;51.20;;;;;;4389629;32;20219;-73
2022/05/09 12:44:20;;;;;;;;;;;28.80;51.70;;;;;;4400207;32;20163;-74
2022/05/09 12:47:00;;;;;;;0.85;0.30;;;28.90;52.20;;;;;;4381539;32;19997;-73
2022/05/09 12:49:35;;;;;;;5.72;0.37;;;29.00;51.10;;;;;;4388220;32;20101;-74
2022/05/09 12:52:01;;;;;;;4.70;0.40;;;28.90;51.80;;;;;;4377873;32;20580;-73
2022/05/09 12:54:29;;;;;;;0.10;0.10;;;28.40;51.80;;;;;;4377002;32;20089;-73
2022/05/09 12:56:59;;;;;;;0.10;0.10;;;28.50;51.70;;;;;;4393809;32;20425;-72
2022/05/09 12:59:27;;;;;;;0.77;0.73;;;28.80;52.10;;;;;;4401960;32;20108;-73
2022/05/09 13:01:55;;;;;;;0.40;0.32;;;29.10;49.80;;;;;;4378117;32;20978;-73
2022/05/09 13:04:26;;;;;;;5.00;0.70;;;29.20;47.70;;;;;;4370176;32;20249;-73